createdAt,value
2022-09-28T00:01:28.531Z,11.40
2022-09-28T00:04:15.724Z,11.40
2022-09-28T00:07:03.213Z,11.30
2022-09-28T00:09:50.247Z,11.30
2022-09-28T00:12:37.692Z,11.20
2022-09-28T00:15:25.440Z,11.10
2022-09-28T00:18:12.583Z,10.80
2022-09-28T00:21:22.093Z,10.80
2022-09-28T00:24:18.597Z,10.90
2022-09-28T00:27:06.128Z,10.90
2022-09-28T00:29:54.168Z,11.00
2022-09-28T00:32:41.371Z,11.00
2022-09-28T00:35:28.321Z,10.80
2022-09-28T00:38:16.779Z,10.90
2022-09-28T00:41:05.358Z,10.90
2022-09-28T00:43:53.351Z,11.00
2022-09-28T00:46:41.819Z,11.10
2022-09-28T00:49:32.393Z,11.10
2022-09-28T00:52:25.722Z,11.10
2022-09-28T00:55:18.868Z,11.10
2022-09-28T00:58:09.280Z,11.00
2022-09-28T01:01:00.866Z,11.00
2022-09-28T01:03:48.829Z,11.00
2022-09-28T01:06:39.722Z,11.00
2022-09-28T01:09:28.770Z,10.80
2022-09-28T01:12:16.198Z,10.80
2022-09-28T01:15:04.247Z,10.70
2022-09-28T01:18:00.846Z,10.70
2022-09-28T01:20:54.116Z,10.70
2022-09-28T01:24:02.133Z,10.70
2022-09-28T01:26:56.152Z,10.70
2022-09-28T01:29:46.283Z,10.70
2022-09-28T01:32:39.385Z,10.70
2022-09-28T01:35:44.329Z,10.60
2022-09-28T01:38:34.451Z,10.60
2022-09-28T01:41:23.844Z,10.70
2022-09-28T01:44:14.036Z,10.70
2022-09-28T01:47:04.203Z,10.90
2022-09-28T01:50:00.138Z,11.10
2022-09-28T01:52:56.480Z,11.20
2022-09-28T01:55:49.786Z,11.00
2022-09-28T01:58:45.085Z,10.80
2022-09-28T02:01:41.320Z,10.90
2022-09-28T02:04:43.345Z,10.70
2022-09-28T02:07:45.559Z,10.70
2022-09-28T02:10:35.730Z,10.80
2022-09-28T02:13:32.023Z,10.80
2022-09-28T02:16:25.037Z,10.90
2022-09-28T02:19:15.359Z,11.00
2022-09-28T02:22:23.460Z,11.00
2022-09-28T02:25:13.012Z,11.00
2022-09-28T02:28:02.758Z,10.80
2022-09-28T02:30:50.192Z,10.80
2022-09-28T02:33:40.452Z,10.70
2022-09-28T02:36:29.102Z,10.80
2022-09-28T02:39:17.768Z,10.90
2022-09-28T02:42:27.447Z,11.00
2022-09-28T02:45:26.454Z,11.10
2022-09-28T02:48:55.727Z,11.00
2022-09-28T02:51:31.962Z,11.10
2022-09-28T02:54:46.108Z,11.00
2022-09-28T02:57:36.221Z,11.00
2022-09-28T03:00:24.784Z,10.90
2022-09-28T03:03:36.294Z,11.00
2022-09-28T03:06:29.475Z,11.00
2022-09-28T03:09:22.483Z,11.00
2022-09-28T03:12:12.578Z,11.10
2022-09-28T03:15:23.531Z,11.10
2022-09-28T03:18:10.827Z,11.10
2022-09-28T03:20:59.368Z,11.10
2022-09-28T03:23:47.808Z,11.20
2022-09-28T03:26:34.822Z,11.20
2022-09-28T03:29:21.864Z,11.20
2022-09-28T03:32:08.922Z,11.20
2022-09-28T03:34:56.626Z,11.30
2022-09-28T03:37:43.827Z,11.30
2022-09-28T03:40:31.296Z,11.30
2022-09-28T03:43:18.368Z,11.30
2022-09-28T03:46:06.201Z,11.30
2022-09-28T03:48:53.283Z,11.30
2022-09-28T03:51:40.342Z,11.30
2022-09-28T03:54:27.631Z,11.30
2022-09-28T03:57:14.821Z,11.30
2022-09-28T04:00:01.963Z,11.30
2022-09-28T04:02:51.637Z,11.30
2022-09-28T04:05:38.760Z,11.30
2022-09-28T04:08:26.079Z,11.30
2022-09-28T04:11:13.288Z,11.30
2022-09-28T04:14:00.804Z,11.20
2022-09-28T04:16:48.388Z,11.20
2022-09-28T04:19:35.397Z,11.20
2022-09-28T04:22:23.183Z,11.10
2022-09-28T04:25:10.438Z,10.90
2022-09-28T04:28:15.091Z,10.90
2022-09-28T04:31:02.121Z,10.90
2022-09-28T04:33:49.151Z,11.10
2022-09-28T04:36:36.141Z,11.00
2022-09-28T04:39:23.538Z,11.00
2022-09-28T04:42:11.614Z,11.00
2022-09-28T04:45:00.326Z,11.10
2022-09-28T04:47:47.492Z,11.20
2022-09-28T04:50:34.759Z,11.20
2022-09-28T04:53:21.793Z,11.30
2022-09-28T04:56:12.107Z,11.40
2022-09-28T04:58:59.245Z,11.40
2022-09-28T05:01:47.471Z,11.50
2022-09-28T05:04:34.597Z,11.40
2022-09-28T05:07:22.004Z,11.30
2022-09-28T05:10:09.318Z,11.30
2022-09-28T05:12:56.560Z,11.20
2022-09-28T05:15:43.778Z,11.00
2022-09-28T05:18:30.979Z,10.80
2022-09-28T05:21:19.687Z,10.90
2022-09-28T05:24:07.348Z,10.90
2022-09-28T05:26:54.311Z,10.90
2022-09-28T05:29:41.389Z,10.90
2022-09-28T05:32:28.577Z,10.90
2022-09-28T05:35:15.856Z,10.90
2022-09-28T05:38:05.475Z,10.90
2022-09-28T05:40:53.054Z,10.90
2022-09-28T05:43:40.428Z,10.80
2022-09-28T05:46:27.649Z,10.80
2022-09-28T05:49:14.988Z,10.70
2022-09-28T05:52:02.468Z,10.70
2022-09-28T05:54:49.556Z,10.70
2022-09-28T05:57:36.939Z,10.70
2022-09-28T06:00:23.970Z,10.70
2022-09-28T06:03:14.993Z,10.80
2022-09-28T06:06:02.695Z,10.80
2022-09-28T06:08:50.044Z,10.90
2022-09-28T06:11:37.443Z,10.90
2022-09-28T06:14:24.713Z,10.90
2022-09-28T06:17:11.758Z,11.00
2022-09-28T06:19:59.220Z,11.10
2022-09-28T06:22:46.504Z,11.20
2022-09-28T06:25:34.072Z,11.30
2022-09-28T06:28:21.135Z,11.30
2022-09-28T06:31:08.739Z,11.40
2022-09-28T06:33:55.618Z,11.40
2022-09-28T06:36:42.747Z,11.30
2022-09-28T06:39:30.139Z,11.20
2022-09-28T06:42:18.631Z,11.10
2022-09-28T06:45:06.776Z,11.20
2022-09-28T06:48:01.052Z,11.20
2022-09-28T06:50:51.026Z,11.10
2022-09-28T06:53:38.141Z,11.20
2022-09-28T06:56:28.328Z,11.00
2022-09-28T06:59:14.364Z,10.90
2022-09-28T07:02:01.685Z,11.00
2022-09-28T07:04:49.014Z,11.20
2022-09-28T07:07:36.333Z,11.30
2022-09-28T07:10:24.593Z,11.40
2022-09-28T07:13:35.116Z,11.60
2022-09-28T07:16:02.406Z,11.70
2022-09-28T07:18:49.764Z,11.70
2022-09-28T07:21:37.129Z,11.90
2022-09-28T07:24:24.100Z,11.80
2022-09-28T07:27:11.470Z,11.90
2022-09-28T07:30:00.348Z,12.10
2022-09-28T07:32:48.309Z,12.10
2022-09-28T07:35:35.561Z,12.00
2022-09-28T07:38:23.273Z,11.90
2022-09-28T07:41:14.032Z,12.00
2022-09-28T07:44:07.793Z,12.10
2022-09-28T07:46:56.615Z,12.30
2022-09-28T07:49:44.946Z,12.20
2022-09-28T07:52:33.968Z,12.30
2022-09-28T07:55:21.318Z,12.40
2022-09-28T07:58:08.725Z,12.60
2022-09-28T08:00:56.031Z,12.60
2022-09-28T08:03:47.734Z,12.50
2022-09-28T08:06:35.067Z,12.80
2022-09-28T08:09:22.429Z,12.70
2022-09-28T08:12:10.287Z,12.60
2022-09-28T08:14:57.395Z,12.60
2022-09-28T08:17:47.717Z,12.80
2022-09-28T08:20:52.940Z,12.90
2022-09-28T08:23:40.500Z,13.20
2022-09-28T08:26:28.818Z,13.20
2022-09-28T08:29:16.791Z,13.00
2022-09-28T08:32:04.537Z,13.20
2022-09-28T08:34:52.583Z,13.10
2022-09-28T08:37:39.561Z,13.00
2022-09-28T08:40:27.144Z,13.10
2022-09-28T08:43:25.769Z,13.30
2022-09-28T08:46:15.663Z,13.20
2022-09-28T08:49:24.093Z,13.30
2022-09-28T08:52:23.292Z,13.30
2022-09-28T08:55:16.331Z,13.20
2022-09-28T08:58:12.608Z,13.10
2022-09-28T09:01:02.545Z,12.80
2022-09-28T09:03:50.162Z,12.70
2022-09-28T09:06:43.165Z,12.70
2022-09-28T09:09:57.719Z,12.80
2022-09-28T09:13:03.313Z,12.90
2022-09-28T09:16:11.729Z,13.20
2022-09-28T09:19:17.399Z,13.10
2022-09-28T09:22:31.892Z,13.00
2022-09-28T09:25:22.188Z,13.20
2022-09-28T09:28:24.435Z,13.30
2022-09-28T09:31:38.624Z,13.60
2022-09-28T09:35:00.121Z,13.70
2022-09-28T09:38:09.292Z,13.60
2022-09-28T09:41:11.042Z,13.40
2022-09-28T09:44:12.703Z,13.50
2022-09-28T09:47:07.721Z,13.70
2022-09-28T09:50:21.900Z,13.60
2022-09-28T09:53:27.060Z,13.80
2022-09-28T09:56:23.246Z,13.80
2022-09-28T09:59:16.057Z,13.80
2022-09-28T10:02:09.815Z,14.00
2022-09-28T10:05:15.729Z,14.40
2022-09-28T10:08:12.032Z,14.50
2022-09-28T10:11:14.233Z,14.50
2022-09-28T10:14:01.535Z,14.80
2022-09-28T10:16:50.668Z,14.90
2022-09-28T10:19:38.081Z,14.80
2022-09-28T10:22:28.117Z,15.10
2022-09-28T10:25:19.500Z,15.10
2022-09-28T10:28:14.022Z,15.20
2022-09-28T10:31:01.619Z,15.30
2022-09-28T10:33:49.140Z,15.30
2022-09-28T10:36:48.084Z,15.40
2022-09-28T10:39:38.092Z,15.60
2022-09-28T10:42:27.858Z,15.90
2022-09-28T10:45:23.230Z,16.00
2022-09-28T10:48:23.271Z,15.90
2022-09-28T10:51:10.521Z,15.70
2022-09-28T10:54:02.847Z,15.60
2022-09-28T10:56:52.625Z,15.60
2022-09-28T10:59:42.156Z,15.40
2022-09-28T11:02:38.248Z,15.40
2022-09-28T11:05:30.083Z,15.00
2022-09-28T11:08:20.476Z,15.00
2022-09-28T11:11:15.644Z,14.90
2022-09-28T11:14:03.563Z,15.10
2022-09-28T11:16:54.161Z,15.30
2022-09-28T11:19:42.169Z,15.20
2022-09-28T11:22:37.042Z,15.80
2022-09-28T11:25:27.261Z,16.00
2022-09-28T11:28:22.889Z,15.80
2022-09-28T11:31:11.221Z,15.60
2022-09-28T11:34:16.392Z,15.60
2022-09-28T11:37:36.523Z,15.70
2022-09-28T11:40:43.846Z,15.90
2022-09-28T11:43:48.567Z,15.90
2022-09-28T11:46:59.853Z,15.60
2022-09-28T11:50:06.276Z,15.60
2022-09-28T11:53:04.958Z,15.30
2022-09-28T11:56:01.808Z,15.50
2022-09-28T11:58:55.353Z,15.50
2022-09-28T12:01:48.537Z,15.90
2022-09-28T12:04:42.337Z,16.00
2022-09-28T12:07:32.609Z,16.10
2022-09-28T12:10:22.683Z,16.10
2022-09-28T12:13:22.655Z,15.80
2022-09-28T12:16:45.765Z,15.50
2022-09-28T12:19:35.639Z,15.70
2022-09-28T12:22:26.533Z,15.80
2022-09-28T12:25:19.786Z,15.90
2022-09-28T12:28:09.931Z,16.10
2022-09-28T12:31:00.219Z,16.40
2022-09-28T12:33:51.597Z,16.00
2022-09-28T12:36:47.783Z,16.10
2022-09-28T12:39:58.667Z,16.10
2022-09-28T12:42:53.924Z,16.30
2022-09-28T12:46:11.445Z,16.60
2022-09-28T12:49:56.224Z,16.40
2022-09-28T12:51:57.542Z,16.10
2022-09-28T12:55:22.326Z,16.00
2022-09-28T12:58:30.783Z,16.10
2022-09-28T13:01:26.888Z,15.90
2022-09-28T13:04:37.751Z,15.60
2022-09-28T13:07:27.812Z,15.30
2022-09-28T13:10:33.983Z,15.40
2022-09-28T13:13:40.636Z,15.40
2022-09-28T13:16:42.667Z,15.70
2022-09-28T13:19:47.909Z,16.00
2022-09-28T13:22:56.347Z,16.20
2022-09-28T13:25:46.814Z,16.60
2022-09-28T13:28:37.331Z,16.90
2022-09-28T13:31:30.893Z,16.70
2022-09-28T13:34:20.521Z,16.30
2022-09-28T13:37:24.069Z,16.20
2022-09-28T13:40:11.306Z,15.90
2022-09-28T13:43:04.537Z,15.60
2022-09-28T13:45:54.640Z,15.70
2022-09-28T13:48:56.841Z,15.60
2022-09-28T13:52:02.671Z,15.80
2022-09-28T13:54:55.560Z,15.80
2022-09-28T13:57:51.309Z,15.40
2022-09-28T14:00:52.790Z,15.20
2022-09-28T14:04:05.497Z,15.30
2022-09-28T14:06:58.656Z,15.20
2022-09-28T14:09:48.715Z,15.00
2022-09-28T14:12:39.226Z,15.10
2022-09-28T14:15:41.361Z,15.40
2022-09-28T14:18:31.474Z,15.80
2022-09-28T14:21:24.794Z,15.90
2022-09-28T14:24:15.340Z,15.70
2022-09-28T14:27:13.914Z,15.40
2022-09-28T14:30:16.041Z,15.50
2022-09-28T14:33:06.283Z,15.30
2022-09-28T14:36:04.220Z,15.20
2022-09-28T14:39:09.277Z,15.20
2022-09-28T14:41:56.571Z,15.30
2022-09-28T14:45:07.465Z,15.50
2022-09-28T14:48:21.088Z,15.50
2022-09-28T14:51:30.945Z,15.50
2022-09-28T14:54:22.876Z,15.50
2022-09-28T14:57:18.960Z,15.30
2022-09-28T15:00:18.063Z,15.20
2022-09-28T15:03:12.003Z,15.10
2022-09-28T15:05:55.943Z,15.20
2022-09-28T15:08:43.091Z,15.40
2022-09-28T15:11:30.166Z,15.50
2022-09-28T15:14:21.111Z,15.80
2022-09-28T15:17:13.309Z,15.90
2022-09-28T15:20:12.141Z,16.00
2022-09-28T15:23:00.781Z,15.90
2022-09-28T15:25:50.959Z,15.60
2022-09-28T15:28:39.972Z,15.50
2022-09-28T15:31:28.944Z,15.70
2022-09-28T15:34:54.613Z,15.60
2022-09-28T15:37:41.688Z,15.40
2022-09-28T15:40:31.852Z,15.50
2022-09-28T15:43:26.772Z,15.90
2022-09-28T15:46:21.780Z,15.70
2022-09-28T15:49:10.891Z,15.50
2022-09-28T15:51:59.671Z,15.30
2022-09-28T15:54:46.717Z,15.10
2022-09-28T15:57:39.056Z,15.10
2022-09-28T16:00:28.783Z,15.10
2022-09-28T16:03:21.821Z,15.10
2022-09-28T16:06:11.209Z,15.10
2022-09-28T16:08:58.216Z,15.10
2022-09-28T16:11:45.832Z,15.10
2022-09-28T16:14:33.125Z,15.10
2022-09-28T16:17:23.764Z,15.00
2022-09-28T16:20:34.084Z,15.00
2022-09-28T16:23:30.854Z,15.00
2022-09-28T16:26:21.015Z,15.00
2022-09-28T16:29:11.283Z,14.90
2022-09-28T16:32:01.501Z,14.90
2022-09-28T16:34:51.657Z,14.90
2022-09-28T16:37:42.961Z,14.90
2022-09-28T16:40:30.773Z,14.80
2022-09-28T16:43:25.667Z,14.70
2022-09-28T16:46:17.797Z,14.70
2022-09-28T16:49:07.232Z,14.80
2022-09-28T16:51:54.360Z,14.80
2022-09-28T16:54:59.621Z,14.90
2022-09-28T16:57:51.313Z,14.90
2022-09-28T17:00:38.667Z,14.90
2022-09-28T17:03:26.199Z,15.00
2022-09-28T17:06:14.747Z,15.00
2022-09-28T17:09:03.681Z,15.00
2022-09-28T17:11:52.728Z,15.00
2022-09-28T17:14:40.242Z,15.00
2022-09-28T17:17:29.181Z,15.00
2022-09-28T17:20:29.182Z,15.00
2022-09-28T17:23:17.105Z,15.00
2022-09-28T17:26:06.293Z,15.00
2022-09-28T17:28:53.570Z,15.00
2022-09-28T17:31:40.914Z,14.90
2022-09-28T17:34:29.763Z,14.90
2022-09-28T17:37:17.382Z,14.80
2022-09-28T17:40:05.742Z,14.80
2022-09-28T17:42:54.629Z,14.50
2022-09-28T17:45:41.700Z,14.40
2022-09-28T17:48:28.812Z,14.20
2022-09-28T17:51:16.065Z,14.10
2022-09-28T17:54:04.320Z,14.10
2022-09-28T17:56:51.776Z,14.10
2022-09-28T17:59:38.759Z,13.90
2022-09-28T18:02:25.862Z,13.90
2022-09-28T18:05:19.047Z,13.90
2022-09-28T18:08:06.056Z,14.00
2022-09-28T18:10:54.520Z,14.10
2022-09-28T18:13:41.819Z,14.10
2022-09-28T18:16:31.116Z,14.10
2022-09-28T18:19:18.162Z,14.10
2022-09-28T18:22:05.668Z,14.10
2022-09-28T18:24:52.917Z,14.10
2022-09-28T18:27:39.952Z,14.10
2022-09-28T18:30:28.674Z,14.00
2022-09-28T18:33:15.841Z,13.90
2022-09-28T18:36:03.782Z,13.60
2022-09-28T18:38:50.992Z,13.50
2022-09-28T18:41:38.402Z,13.50
2022-09-28T18:44:25.448Z,13.60
2022-09-28T18:47:14.943Z,13.70
2022-09-28T18:50:02.272Z,13.70
2022-09-28T18:52:49.750Z,13.70
2022-09-28T18:55:39.113Z,13.70
2022-09-28T18:58:27.004Z,13.60
2022-09-28T19:01:33.064Z,13.60
2022-09-28T19:04:10.130Z,13.50
2022-09-28T19:06:57.199Z,13.40
2022-09-28T19:09:45.160Z,13.40
2022-09-28T19:12:33.641Z,13.40
2022-09-28T19:15:22.529Z,13.40
2022-09-28T19:18:09.454Z,13.50
2022-09-28T19:20:56.752Z,13.50
2022-09-28T19:23:49.026Z,13.40
2022-09-28T19:26:34.587Z,13.40
2022-09-28T19:29:24.419Z,13.30
2022-09-28T19:32:12.579Z,13.30
2022-09-28T19:35:03.058Z,13.30
2022-09-28T19:37:51.279Z,13.40
2022-09-28T19:40:38.697Z,13.50
2022-09-28T19:43:26.561Z,13.50
2022-09-28T19:46:15.550Z,13.50
2022-09-28T19:49:08.173Z,13.50
2022-09-28T19:52:12.182Z,13.50
2022-09-28T19:54:54.974Z,13.50
2022-09-28T19:57:50.969Z,13.40
2022-09-28T20:00:35.493Z,13.30
2022-09-28T20:03:22.689Z,13.30
2022-09-28T20:06:12.727Z,13.30
2022-09-28T20:08:58.807Z,13.20
2022-09-28T20:11:46.685Z,13.20
2022-09-28T20:14:37.974Z,13.20
2022-09-28T20:17:23.024Z,13.10
2022-09-28T20:20:10.416Z,13.10
2022-09-28T20:22:57.960Z,13.00
2022-09-28T20:25:45.251Z,13.00
2022-09-28T20:28:33.090Z,13.00
2022-09-28T20:31:22.671Z,13.00
2022-09-28T20:34:11.356Z,12.90
2022-09-28T20:36:58.413Z,12.80
2022-09-28T20:39:45.812Z,12.60
2022-09-28T20:42:33.187Z,12.40
2022-09-28T20:45:20.275Z,12.40
2022-09-28T20:48:07.477Z,12.30
2022-09-28T20:51:15.610Z,12.10
2022-09-28T20:54:03.102Z,11.90
2022-09-28T20:56:50.264Z,11.80
2022-09-28T20:59:37.368Z,11.80
2022-09-28T21:02:25.129Z,11.90
2022-09-28T21:05:12.285Z,11.80
2022-09-28T21:07:59.547Z,11.90
2022-09-28T21:10:46.823Z,11.90
2022-09-28T21:13:34.061Z,11.80
2022-09-28T21:16:21.473Z,11.90
2022-09-28T21:19:08.766Z,11.70
2022-09-28T21:21:56.104Z,11.70
2022-09-28T21:24:43.234Z,11.50
2022-09-28T21:27:30.844Z,11.40
2022-09-28T21:30:19.928Z,11.40
2022-09-28T21:33:07.382Z,11.50
2022-09-28T21:35:54.740Z,11.70
2022-09-28T21:38:41.892Z,11.70
2022-09-28T21:41:29.612Z,11.50
2022-09-28T21:44:16.727Z,11.50
2022-09-28T21:47:03.741Z,11.40
2022-09-28T21:49:50.964Z,11.40
2022-09-28T21:52:38.074Z,11.30
2022-09-28T21:55:25.302Z,11.20
2022-09-28T21:58:12.337Z,11.10
2022-09-28T22:01:08.135Z,11.00
2022-09-28T22:03:57.136Z,11.10
2022-09-28T22:06:44.156Z,11.10
2022-09-28T22:09:31.510Z,11.10
2022-09-28T22:12:18.977Z,11.00
2022-09-28T22:15:07.234Z,10.80
2022-09-28T22:17:54.530Z,10.70
2022-09-28T22:20:43.107Z,10.60
2022-09-28T22:23:30.992Z,10.60
2022-09-28T22:26:20.788Z,10.60
2022-09-28T22:29:09.456Z,10.60
2022-09-28T22:31:58.316Z,10.50
2022-09-28T22:34:45.352Z,10.20
2022-09-28T22:37:33.033Z,9.70
2022-09-28T22:40:20.266Z,9.50
2022-09-28T22:43:07.281Z,9.30
2022-09-28T22:46:06.091Z,9.30
2022-09-28T22:48:55.130Z,9.50
2022-09-28T22:51:42.264Z,9.40
2022-09-28T22:54:29.457Z,9.40
2022-09-28T22:57:16.490Z,9.40
2022-09-28T23:00:03.613Z,9.30
2022-09-28T23:02:50.980Z,9.30
2022-09-28T23:05:38.101Z,9.30
2022-09-28T23:08:25.283Z,9.20
2022-09-28T23:11:12.772Z,9.30
2022-09-28T23:14:00.895Z,9.20
2022-09-28T23:16:48.194Z,9.20
2022-09-28T23:19:35.260Z,9.10
2022-09-28T23:22:22.368Z,9.00
2022-09-28T23:25:09.898Z,8.90
2022-09-28T23:27:56.882Z,8.80
2022-09-28T23:30:43.973Z,8.70
2022-09-28T23:33:30.992Z,8.50
2022-09-28T23:36:18.863Z,8.40
2022-09-28T23:39:05.979Z,8.40
2022-09-28T23:41:53.229Z,8.40
2022-09-28T23:44:40.491Z,8.40
2022-09-28T23:47:27.870Z,8.40
2022-09-28T23:50:15.271Z,8.50
2022-09-28T23:53:02.519Z,8.60
2022-09-28T23:55:49.679Z,8.60
2022-09-28T23:58:36.963Z,8.60
